Flight Track Log - Related Links

Times and Time Zones

All times are in EDT time to prevent confusion due to time zone crossing. See the AFR1910 flight status page for this flight to view local times or setup timezone preferences in your user account.

Time Position Orientation Groundspeed Altitude Reporting Facility
EDT Latitude Longitude Course Direction KTS MPH feet Rate Location/Type
Fri 02:17:00 PM 49.0438 2.8826 82° East  Level Estimated
Fri 02:18:00 PM 49.0540 2.9951 82° East  Level Estimated
Fri 02:19:00 PM 49.0642 3.1076 82° East  Level Estimated
Fri 02:20:00 PM 49.0742 3.2201 82° East  Level Estimated
Fri 02:21:00 PM 49.0841 3.3327 82° East  Level Estimated
Fri 02:22:00 PM 49.0939 3.4453 82° East  Level Estimated
Fri 02:23:00 PM 49.1036 3.5580 82° East  Level Estimated
Fri 02:24:00 PM 49.1132 3.6707 83° East  Level Estimated
Fri 02:25:00 PM 49.1227 3.7835 83° East  Level Estimated
Fri 02:26:00 PM 49.1321 3.8963 83° East  Level Estimated
Fri 02:27:00 PM 49.1413 4.0091 83° East  Level Estimated
Fri 02:28:00 PM 49.1505 4.1220 83° East  Level Estimated
Fri 02:29:00 PM 49.1595 4.2349 83° East  Level Estimated
Fri 02:30:00 PM 49.1685 4.3479 83° East  Level Estimated
Fri 02:31:00 PM 49.1773 4.4609 83° East  Level Estimated
Fri 02:32:00 PM 49.1860 4.5740 83° East  Level Estimated
Fri 02:33:00 PM 49.1946 4.6871 83° East  Level Estimated
Fri 02:34:00 PM 49.2031 4.8002 83° East  Level Estimated
Fri 02:35:00 PM 49.2115 4.9134 83° East  Level Estimated
Fri 02:36:00 PM 49.2197 5.0266 84° East  Level Estimated
Fri 02:37:00 PM 49.2279 5.1398 84° East  Level Estimated
Fri 02:38:00 PM 49.2360 5.2531 84° East  Level Estimated
Fri 02:39:00 PM 49.2439 5.3664 84° East  Level Estimated
Fri 02:40:00 PM 49.2517 5.4798 84° East  Level Estimated
Fri 02:41:00 PM 49.2594 5.5932 84° East  Level Estimated
Fri 02:42:00 PM 49.2671 5.7066 84° East  Level Estimated
Fri 02:43:00 PM 49.2746 5.8200 84° East  Level Estimated
Fri 02:44:00 PM 49.2820 5.9335 84° East  Level Estimated
Fri 02:45:00 PM 49.2892 6.0470 84° East  Level Estimated
Fri 02:46:00 PM 49.2964 6.1606 84° East  Level Estimated
Fri 02:47:00 PM 49.3034 6.2742 85° East  Level Estimated
Fri 02:48:00 PM 49.3104 6.3878 85° East  Level Estimated
Fri 02:49:00 PM 49.3175 6.5062 85° East  Level Estimated
Fri 02:50:00 PM 49.3245 6.6247 85° East  Level Estimated
Fri 02:51:00 PM 49.3313 6.7431 85° East  Level Estimated
Fri 02:52:00 PM 49.3381 6.8616 85° East  Level Estimated
Fri 02:53:00 PM 49.3447 6.9801 85° East  Level Estimated
Fri 02:54:00 PM 49.3512 7.0987 85° East  Level Estimated
Fri 02:55:00 PM 49.3576 7.2173 85° East  Level Estimated
Fri 02:56:00 PM 49.3639 7.3359 85° East  Level Estimated
Fri 02:57:00 PM 49.3700 7.4545 85° East  Level Estimated
Fri 02:58:00 PM 49.3760 7.5732 85° East  Level Estimated
Fri 02:59:00 PM 49.3819 7.6919 86° East  Level Estimated
Fri 03:00:00 PM 49.3877 7.8107 86° East  Level Estimated
Fri 03:01:00 PM 49.3934 7.9294 86° East  Level Estimated
Fri 03:02:00 PM 49.3989 8.0482 86° East  Level Estimated
Fri 03:03:00 PM 49.4039 8.1579 86° East  Level Estimated
Fri 03:04:00 PM 49.4088 8.2676 86° East  Level Estimated
Fri 03:05:00 PM 49.4136 8.3773 86° East  Level Estimated
Fri 03:06:00 PM 49.4183 8.4871 86° East  Level Estimated
Fri 03:07:00 PM 49.4229 8.5968 86° East  Level Estimated
Fri 03:08:00 PM 49.4273 8.7066 86° East  Level Estimated
Fri 03:09:00 PM 49.4317 8.8164 86° East  Level Estimated
Fri 03:10:00 PM 49.4360 8.9262 87° East  Level Estimated
Fri 03:11:00 PM 49.4402 9.0361 87° East  Level Estimated
Fri 03:12:00 PM 49.4442 9.1459 87° East  Level Estimated
Fri 03:13:00 PM 49.4482 9.2558 87° East  Level Estimated
Fri 03:14:00 PM 49.4521 9.3657 87° East  Level Estimated
Fri 03:15:00 PM 49.4558 9.4756 87° East  Level Estimated
Fri 03:16:00 PM 49.4595 9.5855 87° East  Level Estimated
Fri 03:17:00 PM 49.4630 9.6955 87° East  Level Estimated
Fri 03:18:00 PM 49.4664 9.8054 87° East  Level Estimated
Fri 03:19:00 PM 49.4698 9.9154 87° East  Level Estimated
Fri 03:20:00 PM 49.4730 10.0254 87° East  Level Estimated
Fri 03:21:00 PM 49.4761 10.1354 87° East  Level Estimated
Fri 03:22:00 PM 49.4792 10.2454 88° East  Level Estimated
Fri 03:23:00 PM 49.4821 10.3554 88° East  Level Estimated
Fri 03:24:00 PM 49.4849 10.4655 88° East  Level Estimated
Fri 03:25:00 PM 49.4876 10.5756 88° East  Level Estimated
Fri 03:26:00 PM 49.4902 10.6856 88° East  Level Estimated
Fri 03:27:00 PM 49.4927 10.7957 88° East  Level Estimated
Fri 03:28:00 PM 49.4953 10.9166 88° East  Level Estimated
Fri 03:29:00 PM 49.4978 11.0376 88° East  Level Estimated
Fri 03:30:00 PM 49.4986 11.0781 88° East  Level Estimated
Fri 03:31:00 PM 49.4986 11.0781 327° Northwest  Level Estimated
Fri 03:32:00 PM 49.4986 11.0781 327° Northwest  Level Estimated

Login

Don't have an account? Register now (free) for customized features, flight alerts, and more!